sensor_id;sensor_type;location;lat;lon;timestamp;pressure;altitude;pressure_sealevel;temperature;humidity
6028;BME280;3042;43.194;27.646;2023-03-22T00:01:08;101397.38;;;15.85;100.00
6028;BME280;3042;43.194;27.646;2023-03-22T00:03:35;101455.66;;;16.12;100.00
6028;BME280;3042;43.194;27.646;2023-03-22T00:06:03;101443.78;;;16.20;100.00
6028;BME280;3042;43.194;27.646;2023-03-22T00:08:31;101463.72;;;15.93;100.00
6028;BME280;3042;43.194;27.646;2023-03-22T00:10:58;101466.63;;;15.76;100.00
6028;BME280;3042;43.194;27.646;2023-03-22T00:13:25;101458.28;;;15.87;100.00
6028;BME280;3042;43.194;27.646;2023-03-22T00:15:54;101465.75;;;15.76;100.00
6028;BME280;3042;43.194;27.646;2023-03-22T00:18:24;101470.59;;;15.91;100.00
6028;BME280;3042;43.194;27.646;2023-03-22T00:20:53;101349.31;;;15.25;100.00
6028;BME280;3042;43.194;27.646;2023-03-22T00:23:21;101456.91;;;15.98;100.00
6028;BME280;3042;43.194;27.646;2023-03-22T00:25:50;101452.03;;;16.07;100.00
6028;BME280;3042;43.194;27.646;2023-03-22T00:28:17;101325.66;;;15.19;100.00
6028;BME280;3042;43.194;27.646;2023-03-22T00:30:51;101455.03;;;15.94;100.00
6028;BME280;3042;43.194;27.646;2023-03-22T00:33:18;101331.66;;;15.40;100.00
6028;BME280;3042;43.194;27.646;2023-03-22T00:35:52;101423.59;;;16.42;100.00
6028;BME280;3042;43.194;27.646;2023-03-22T00:38:19;101258.03;;;14.95;100.00
6028;BME280;3042;43.194;27.646;2023-03-22T00:40:46;101425.03;;;15.55;100.00
6028;BME280;3042;43.194;27.646;2023-03-22T00:43:15;101317.50;;;15.08;100.00
6028;BME280;3042;43.194;27.646;2023-03-22T00:45:44;101336.38;;;15.03;100.00
6028;BME280;3042;43.194;27.646;2023-03-22T00:48:11;101235.59;;;14.73;100.00
6028;BME280;3042;43.194;27.646;2023-03-22T00:50:42;101115.28;;;14.30;100.00
6028;BME280;3042;43.194;27.646;2023-03-22T01:00:11;101190.53;;;14.74;100.00
6028;BME280;3042;43.194;27.646;2023-03-22T01:02:39;101287.78;;;15.02;100.00
6028;BME280;3042;43.194;27.646;2023-03-22T01:05:07;101267.31;;;14.87;100.00
6028;BME280;3042;43.194;27.646;2023-03-22T01:07:40;101389.16;;;15.98;100.00
6028;BME280;3042;43.194;27.646;2023-03-22T01:10:08;101417.56;;;16.16;100.00
6028;BME280;3042;43.194;27.646;2023-03-22T01:12:38;101356.19;;;16.00;100.00
6028;BME280;3042;43.194;27.646;2023-03-22T01:15:06;101399.91;;;16.36;100.00
6028;BME280;3042;43.194;27.646;2023-03-22T01:17:34;101411.34;;;16.12;100.00
6028;BME280;3042;43.194;27.646;2023-03-22T01:20:02;101416.22;;;16.29;100.00
6028;BME280;3042;43.194;27.646;2023-03-22T01:22:39;101408.09;;;16.48;100.00
6028;BME280;3042;43.194;27.646;2023-03-22T01:25:06;100858.13;;;13.29;100.00
6028;BME280;3042;43.194;27.646;2023-03-22T01:27:34;101413.16;;;16.15;100.00
6028;BME280;3042;43.194;27.646;2023-03-22T01:30:01;101332.69;;;15.71;100.00
6028;BME280;3042;43.194;27.646;2023-03-22T01:32:28;101421.56;;;16.33;100.00
6028;BME280;3042;43.194;27.646;2023-03-22T01:34:57;101392.09;;;16.36;100.00
6028;BME280;3042;43.194;27.646;2023-03-22T01:37:24;101420.78;;;16.36;100.00
6028;BME280;3042;43.194;27.646;2023-03-22T01:39:52;101421.50;;;16.32;100.00
6028;BME280;3042;43.194;27.646;2023-03-22T01:42:20;101423.38;;;16.36;100.00
6028;BME280;3042;43.194;27.646;2023-03-22T01:47:57;101363.28;;;16.04;100.00
6028;BME280;3042;43.194;27.646;2023-03-22T01:50:43;101411.50;;;16.44;100.00
6028;BME280;3042;43.194;27.646;2023-03-22T01:53:13;101159.72;;;14.61;100.00
6028;BME280;3042;43.194;27.646;2023-03-22T01:55:44;101422.06;;;16.21;100.00
6028;BME280;3042;43.194;27.646;2023-03-22T01:58:12;101319.84;;;15.52;100.00
6028;BME280;3042;43.194;27.646;2023-03-22T02:00:42;101429.88;;;16.21;100.00
6028;BME280;3042;43.194;27.646;2023-03-22T02:03:11;101297.88;;;15.18;100.00
6028;BME280;3042;43.194;27.646;2023-03-22T02:05:42;101422.72;;;16.41;100.00
6028;BME280;3042;43.194;27.646;2023-03-22T02:08:09;101424.09;;;16.30;100.00
6028;BME280;3042;43.194;27.646;2023-03-22T02:10:39;101441.59;;;16.07;100.00
6028;BME280;3042;43.194;27.646;2023-03-22T02:13:23;101435.00;;;16.18;100.00
6028;BME280;3042;43.194;27.646;2023-03-22T02:16:02;101431.06;;;16.04;100.00
6028;BME280;3042;43.194;27.646;2023-03-22T02:18:49;101443.03;;;15.99;100.00
6028;BME280;3042;43.194;27.646;2023-03-22T02:21:46;101336.34;;;15.76;100.00
6028;BME280;3042;43.194;27.646;2023-03-22T02:27:45;101429.09;;;16.51;100.00
6028;BME280;3042;43.194;27.646;2023-03-22T02:30:50;101437.38;;;16.38;100.00
6028;BME280;3042;43.194;27.646;2023-03-22T02:33:35;101440.81;;;16.37;100.00
6028;BME280;3042;43.194;27.646;2023-03-22T02:36:23;101435.91;;;16.46;100.00
6028;BME280;3042;43.194;27.646;2023-03-22T02:39:18;101435.91;;;16.46;100.00
6028;BME280;3042;43.194;27.646;2023-03-22T02:42:03;101435.88;;;15.68;100.00
6028;BME280;3042;43.194;27.646;2023-03-22T02:44:40;101276.44;;;14.75;100.00
6028;BME280;3042;43.194;27.646;2023-03-22T02:47:12;101438.91;;;15.78;100.00
6028;BME280;3042;43.194;27.646;2023-03-22T02:49:52;101192.47;;;14.07;100.00
6028;BME280;3042;43.194;27.646;2023-03-22T02:52:26;101318.59;;;15.15;100.00
6028;BME280;3042;43.194;27.646;2023-03-22T02:55:03;101409.63;;;15.87;100.00
6028;BME280;3042;43.194;27.646;2023-03-22T02:57:39;101447.66;;;15.80;100.00
6028;BME280;3042;43.194;27.646;2023-03-22T03:00:09;101331.59;;;14.44;100.00
6028;BME280;3042;43.194;27.646;2023-03-22T03:02:43;101438.88;;;15.30;100.00
6028;BME280;3042;43.194;27.646;2023-03-22T03:05:13;101313.94;;;14.58;100.00
6028;BME280;3042;43.194;27.646;2023-03-22T03:07:43;101488.53;;;15.59;100.00
6028;BME280;3042;43.194;27.646;2023-03-22T03:10:15;101453.94;;;15.87;100.00
6028;BME280;3042;43.194;27.646;2023-03-22T03:12:46;101441.69;;;16.10;100.00
6028;BME280;3042;43.194;27.646;2023-03-22T03:15:15;101452.09;;;16.10;100.00
6028;BME280;3042;43.194;27.646;2023-03-22T03:17:55;101446.38;;;16.20;100.00
6028;BME280;3042;43.194;27.646;2023-03-22T03:20:31;101447.41;;;16.25;100.00
6028;BME280;3042;43.194;27.646;2023-03-22T03:23:11;101451.13;;;16.34;100.00
6028;BME280;3042;43.194;27.646;2023-03-22T03:25:50;101450.50;;;16.41;100.00
6028;BME280;3042;43.194;27.646;2023-03-22T03:28:28;101450.19;;;16.32;100.00
6028;BME280;3042;43.194;27.646;2023-03-22T03:31:09;101451.06;;;16.58;100.00
6028;BME280;3042;43.194;27.646;2023-03-22T03:33:47;101406.06;;;16.38;100.00
6028;BME280;3042;43.194;27.646;2023-03-22T03:36:18;101349.19;;;15.97;100.00
6028;BME280;3042;43.194;27.646;2023-03-22T03:38:49;101457.56;;;16.72;100.00
6028;BME280;3042;43.194;27.646;2023-03-22T03:41:23;101453.47;;;16.79;100.00
6028;BME280;3042;43.194;27.646;2023-03-22T03:43:53;101455.94;;;16.76;100.00
6028;BME280;3042;43.194;27.646;2023-03-22T03:46:23;101471.50;;;16.45;100.00
6028;BME280;3042;43.194;27.646;2023-03-22T03:48:51;101466.13;;;16.39;100.00
6028;BME280;3042;43.194;27.646;2023-03-22T03:51:20;101461.88;;;16.43;100.00
6028;BME280;3042;43.194;27.646;2023-03-22T03:53:50;101469.25;;;16.56;100.00
6028;BME280;3042;43.194;27.646;2023-03-22T03:56:17;101411.56;;;16.47;100.00
6028;BME280;3042;43.194;27.646;2023-03-22T03:58:45;101460.06;;;16.96;100.00
6028;BME280;3042;43.194;27.646;2023-03-22T04:01:12;101460.88;;;16.94;100.00
6028;BME280;3042;43.194;27.646;2023-03-22T04:03:40;101473.50;;;16.80;100.00
6028;BME280;3042;43.194;27.646;2023-03-22T04:06:07;101382.28;;;16.00;100.00
6028;BME280;3042;43.194;27.646;2023-03-22T04:08:34;101472.72;;;16.55;100.00
6028;BME280;3042;43.194;27.646;2023-03-22T04:11:02;101474.88;;;16.41;100.00
6028;BME280;3042;43.194;27.646;2023-03-22T04:13:29;101480.59;;;16.30;100.00
6028;BME280;3042;43.194;27.646;2023-03-22T04:15:57;101469.72;;;16.17;100.00
6028;BME280;3042;43.194;27.646;2023-03-22T04:18:26;101430.63;;;15.92;100.00
6028;BME280;3042;43.194;27.646;2023-03-22T04:20:54;101466.78;;;16.34;100.00
6028;BME280;3042;43.194;27.646;2023-03-22T04:23:21;101470.72;;;16.48;100.00
6028;BME280;3042;43.194;27.646;2023-03-22T04:25:50;101470.53;;;16.42;100.00
6028;BME280;3042;43.194;27.646;2023-03-22T04:28:19;101484.31;;;16.38;100.00
6028;BME280;3042;43.194;27.646;2023-03-22T04:30:46;101480.47;;;16.27;100.00
6028;BME280;3042;43.194;27.646;2023-03-22T04:33:16;101478.13;;;16.61;100.00
6028;BME280;3042;43.194;27.646;2023-03-22T04:35:44;101472.97;;;16.64;100.00
6028;BME280;3042;43.194;27.646;2023-03-22T04:38:11;101473.50;;;16.80;100.00
6028;BME280;3042;43.194;27.646;2023-03-22T04:40:43;101479.97;;;16.65;100.00
6028;BME280;3042;43.194;27.646;2023-03-22T04:43:11;101469.91;;;16.78;100.00
6028;BME280;3042;43.194;27.646;2023-03-22T04:45:40;101476.66;;;16.70;100.00
6028;BME280;3042;43.194;27.646;2023-03-22T04:48:08;101320.22;;;15.37;100.00
6028;BME280;3042;43.194;27.646;2023-03-22T04:50:38;101475.56;;;16.10;100.00
6028;BME280;3042;43.194;27.646;2023-03-22T04:53:06;101487.78;;;16.37;100.00
6028;BME280;3042;43.194;27.646;2023-03-22T04:55:33;101482.66;;;16.40;100.00
6028;BME280;3042;43.194;27.646;2023-03-22T04:58:00;101503.78;;;16.22;100.00
6028;BME280;3042;43.194;27.646;2023-03-22T05:00:27;101380.34;;;15.43;100.00
6028;BME280;3042;43.194;27.646;2023-03-22T05:02:55;101507.41;;;16.27;100.00
6028;BME280;3042;43.194;27.646;2023-03-22T05:05:22;101499.41;;;16.21;100.00
6028;BME280;3042;43.194;27.646;2023-03-22T05:07:51;101504.47;;;15.91;100.00
6028;BME280;3042;43.194;27.646;2023-03-22T05:10:18;101499.78;;;15.80;100.00
6028;BME280;3042;43.194;27.646;2023-03-22T05:12:45;101454.03;;;15.66;100.00
6028;BME280;3042;43.194;27.646;2023-03-22T05:15:12;101508.63;;;15.86;100.00
6028;BME280;3042;43.194;27.646;2023-03-22T05:17:39;101505.69;;;15.76;100.00
6028;BME280;3042;43.194;27.646;2023-03-22T05:20:07;101518.63;;;15.51;100.00
6028;BME280;3042;43.194;27.646;2023-03-22T05:22:36;101477.03;;;15.06;100.00
6028;BME280;3042;43.194;27.646;2023-03-22T05:25:08;101509.88;;;15.49;100.00
6028;BME280;3042;43.194;27.646;2023-03-22T05:27:35;101418.31;;;14.67;100.00
6028;BME280;3042;43.194;27.646;2023-03-22T05:30:04;101517.91;;;15.08;100.00
6028;BME280;3042;43.194;27.646;2023-03-22T05:32:31;101522.59;;;14.94;100.00
6028;BME280;3042;43.194;27.646;2023-03-22T05:35:02;101482.09;;;14.57;100.00
6028;BME280;3042;43.194;27.646;2023-03-22T05:37:29;101423.66;;;14.27;100.00
6028;BME280;3042;43.194;27.646;2023-03-22T05:39:56;101521.75;;;14.73;100.00
6028;BME280;3042;43.194;27.646;2023-03-22T05:42:25;101506.97;;;14.94;100.00
6028;BME280;3042;43.194;27.646;2023-03-22T05:44:52;101524.34;;;14.73;100.00
6028;BME280;3042;43.194;27.646;2023-03-22T05:47:19;101523.97;;;14.86;100.00
6028;BME280;3042;43.194;27.646;2023-03-22T05:49:46;101399.47;;;14.29;100.00
6028;BME280;3042;43.194;27.646;2023-03-22T05:52:13;101514.44;;;15.08;100.00
6028;BME280;3042;43.194;27.646;2023-03-22T05:54:42;101299.09;;;14.10;100.00
6028;BME280;3042;43.194;27.646;2023-03-22T05:57:10;101518.69;;;15.06;100.00
6028;BME280;3042;43.194;27.646;2023-03-22T05:59:39;101515.09;;;15.26;100.00
6028;BME280;3042;43.194;27.646;2023-03-22T06:02:06;101519.53;;;15.29;100.00
6028;BME280;3042;43.194;27.646;2023-03-22T06:04:33;101522.00;;;15.24;100.00
6028;BME280;3042;43.194;27.646;2023-03-22T06:07:00;101523.94;;;15.30;100.00
6028;BME280;3042;43.194;27.646;2023-03-22T06:09:27;101521.94;;;15.47;100.00
6028;BME280;3042;43.194;27.646;2023-03-22T06:11:54;101484.97;;;15.09;100.00
6028;BME280;3042;43.194;27.646;2023-03-22T06:14:21;101528.00;;;15.46;100.00
6028;BME280;3042;43.194;27.646;2023-03-22T06:16:50;101524.47;;;15.44;100.00
6028;BME280;3042;43.194;27.646;2023-03-22T06:19:17;101529.22;;;15.31;100.00
6028;BME280;3042;43.194;27.646;2023-03-22T06:21:44;101523.19;;;15.56;100.00
6028;BME280;3042;43.194;27.646;2023-03-22T06:24:11;101533.31;;;15.49;100.00
6028;BME280;3042;43.194;27.646;2023-03-22T06:26:38;101462.47;;;15.11;100.00
6028;BME280;3042;43.194;27.646;2023-03-22T06:29:05;101470.13;;;15.30;100.00
6028;BME280;3042;43.194;27.646;2023-03-22T06:31:32;101474.88;;;15.40;100.00
6028;BME280;3042;43.194;27.646;2023-03-22T06:34:01;101537.94;;;16.04;100.00
6028;BME280;3042;43.194;27.646;2023-03-22T06:36:28;101562.31;;;15.80;100.00
6028;BME280;3042;43.194;27.646;2023-03-22T06:38:55;101515.59;;;15.62;100.00
6028;BME280;3042;43.194;27.646;2023-03-22T06:41:23;101546.19;;;16.16;100.00
6028;BME280;3042;43.194;27.646;2023-03-22T06:43:50;101544.78;;;16.26;100.00
6028;BME280;3042;43.194;27.646;2023-03-22T06:46:17;101404.94;;;15.27;100.00
6028;BME280;3042;43.194;27.646;2023-03-22T06:48:45;101494.13;;;15.94;100.00
6028;BME280;3042;43.194;27.646;2023-03-22T06:51:14;101555.69;;;16.40;100.00
6028;BME280;3042;43.194;27.646;2023-03-22T06:53:41;101560.81;;;16.37;100.00
6028;BME280;3042;43.194;27.646;2023-03-22T06:56:09;101557.72;;;16.76;100.00
6028;BME280;3042;43.194;27.646;2023-03-22T06:58:40;101347.06;;;15.86;100.00
6028;BME280;3042;43.194;27.646;2023-03-22T07:01:07;101440.06;;;16.68;100.00
6028;BME280;3042;43.194;27.646;2023-03-22T07:03:34;101566.53;;;17.34;100.00
6028;BME280;3042;43.194;27.646;2023-03-22T07:06:02;101255.78;;;15.57;100.00
6028;BME280;3042;43.194;27.646;2023-03-22T07:08:35;101516.03;;;17.04;100.00
6028;BME280;3042;43.194;27.646;2023-03-22T07:11:08;101505.22;;;16.66;100.00
6028;BME280;3042;43.194;27.646;2023-03-22T07:13:37;100967.06;;;13.52;100.00
6028;BME280;3042;43.194;27.646;2023-03-22T07:16:11;101546.94;;;17.19;100.00
6028;BME280;3042;43.194;27.646;2023-03-22T07:18:41;101188.34;;;15.12;100.00
6028;BME280;3042;43.194;27.646;2023-03-22T07:21:12;101534.47;;;16.82;100.00
6028;BME280;3042;43.194;27.646;2023-03-22T07:23:41;101586.19;;;16.94;100.00
6028;BME280;3042;43.194;27.646;2023-03-22T07:26:14;101593.28;;;16.98;100.00
6028;BME280;3042;43.194;27.646;2023-03-22T07:28:51;101521.31;;;16.26;100.00
6028;BME280;3042;43.194;27.646;2023-03-22T07:31:18;101597.59;;;16.97;100.00
6028;BME280;3042;43.194;27.646;2023-03-22T07:33:45;101601.94;;;16.97;100.00
6028;BME280;3042;43.194;27.646;2023-03-22T07:36:13;101598.16;;;17.14;100.00
6028;BME280;3042;43.194;27.646;2023-03-22T07:38:41;101592.03;;;17.42;100.00
6028;BME280;3042;43.194;27.646;2023-03-22T07:41:08;101396.72;;;16.17;100.00
6028;BME280;3042;43.194;27.646;2023-03-22T07:43:35;101590.16;;;17.38;100.00
6028;BME280;3042;43.194;27.646;2023-03-22T07:46:03;101495.22;;;17.07;100.00
6028;BME280;3042;43.194;27.646;2023-03-22T07:48:30;101597.03;;;17.63;100.00
6028;BME280;3042;43.194;27.646;2023-03-22T07:50:58;101604.72;;;17.59;100.00
6028;BME280;3042;43.194;27.646;2023-03-22T07:53:25;101591.72;;;17.90;100.00
6028;BME280;3042;43.194;27.646;2023-03-22T07:55:54;101566.00;;;18.06;100.00
6028;BME280;3042;43.194;27.646;2023-03-22T07:58:22;101286.81;;;16.34;100.00
6028;BME280;3042;43.194;27.646;2023-03-22T08:00:50;101246.34;;;15.60;100.00
6028;BME280;3042;43.194;27.646;2023-03-22T08:03:17;101610.31;;;17.71;100.00
6028;BME280;3042;43.194;27.646;2023-03-22T08:05:44;101597.63;;;18.15;100.00
6028;BME280;3042;43.194;27.646;2023-03-22T08:08:12;101604.91;;;18.27;100.00
6028;BME280;3042;43.194;27.646;2023-03-22T08:10:39;101599.00;;;18.34;100.00
6028;BME280;3042;43.194;27.646;2023-03-22T08:13:07;101594.91;;;18.44;100.00
6028;BME280;3042;43.194;27.646;2023-03-22T08:15:35;101602.13;;;18.54;100.00
6028;BME280;3042;43.194;27.646;2023-03-22T08:18:02;101618.97;;;18.30;100.00
6028;BME280;3042;43.194;27.646;2023-03-22T08:20:29;101557.94;;;17.68;100.00
6028;BME280;3042;43.194;27.646;2023-03-22T08:22:56;101549.38;;;18.04;100.00
6028;BME280;3042;43.194;27.646;2023-03-22T08:25:23;101610.03;;;18.22;100.00
6028;BME280;3042;43.194;27.646;2023-03-22T08:27:50;101545.31;;;18.15;100.00
6028;BME280;3042;43.194;27.646;2023-03-22T08:30:19;101537.84;;;18.65;100.00
6028;BME280;3042;43.194;27.646;2023-03-22T08:32:46;101590.34;;;19.06;100.00
6028;BME280;3042;43.194;27.646;2023-03-22T08:35:13;101593.03;;;19.09;100.00
6028;BME280;3042;43.194;27.646;2023-03-22T08:37:40;101595.09;;;19.23;100.00
6028;BME280;3042;43.194;27.646;2023-03-22T08:40:08;101607.00;;;19.08;100.00
6028;BME280;3042;43.194;27.646;2023-03-22T08:42:35;101615.44;;;18.62;100.00
6028;BME280;3042;43.194;27.646;2023-03-22T08:45:03;101618.44;;;18.44;100.00
6028;BME280;3042;43.194;27.646;2023-03-22T08:47:31;101620.63;;;18.60;100.00
6028;BME280;3042;43.194;27.646;2023-03-22T08:49:58;101564.81;;;18.26;100.00
6028;BME280;3042;43.194;27.646;2023-03-22T08:52:25;101602.75;;;18.12;100.00
6028;BME280;3042;43.194;27.646;2023-03-22T08:54:52;101647.56;;;17.92;100.00
6028;BME280;3042;43.194;27.646;2023-03-22T08:57:20;101650.69;;;18.11;100.00
6028;BME280;3042;43.194;27.646;2023-03-22T08:59:48;101659.00;;;17.96;100.00
6028;BME280;3042;43.194;27.646;2023-03-22T09:02:16;101619.59;;;17.61;100.00
6028;BME280;3042;43.194;27.646;2023-03-22T09:04:45;101410.63;;;16.74;100.00
6028;BME280;3042;43.194;27.646;2023-03-22T09:07:12;101470.97;;;17.12;100.00
6028;BME280;3042;43.194;27.646;2023-03-22T09:09:40;101653.75;;;18.26;100.00
6028;BME280;3042;43.194;27.646;2023-03-22T09:12:07;101653.56;;;18.20;100.00
6028;BME280;3042;43.194;27.646;2023-03-22T09:14:34;101656.13;;;18.17;100.00
6028;BME280;3042;43.194;27.646;2023-03-22T09:17:01;101655.34;;;18.21;100.00
6028;BME280;3042;43.194;27.646;2023-03-22T09:19:28;101657.06;;;18.19;100.00
6028;BME280;3042;43.194;27.646;2023-03-22T09:21:57;101611.78;;;18.23;100.00
6028;BME280;3042;43.194;27.646;2023-03-22T09:24:24;101620.50;;;18.22;100.00
6028;BME280;3042;43.194;27.646;2023-03-22T09:26:51;101570.91;;;17.93;100.00
6028;BME280;3042;43.194;27.646;2023-03-22T09:29:18;101454.50;;;16.84;100.00
6028;BME280;3042;43.194;27.646;2023-03-22T09:31:46;101605.78;;;17.96;100.00
6028;BME280;3042;43.194;27.646;2023-03-22T09:34:14;101661.50;;;18.23;100.00
6028;BME280;3042;43.194;27.646;2023-03-22T09:36:41;101674.91;;;18.04;100.00
6028;BME280;3042;43.194;27.646;2023-03-22T09:39:09;101673.97;;;18.02;100.00
6028;BME280;3042;43.194;27.646;2023-03-22T09:41:38;101677.34;;;17.40;100.00
6028;BME280;3042;43.194;27.646;2023-03-22T09:44:11;101673.69;;;17.35;100.00
6028;BME280;3042;43.194;27.646;2023-03-22T09:46:43;101673.41;;;17.26;100.00
6028;BME280;3042;43.194;27.646;2023-03-22T09:49:14;101672.03;;;17.39;100.00
6028;BME280;3042;43.194;27.646;2023-03-22T09:51:44;101682.88;;;16.97;100.00
6028;BME280;3042;43.194;27.646;2023-03-22T09:54:22;101684.50;;;16.93;100.00
6028;BME280;3042;43.194;27.646;2023-03-22T09:57:04;101647.69;;;16.36;100.00
6028;BME280;3042;43.194;27.646;2023-03-22T09:59:49;101606.09;;;16.15;100.00
6028;BME280;3042;43.194;27.646;2023-03-22T10:02:47;101689.94;;;16.75;100.00
6028;BME280;3042;43.194;27.646;2023-03-22T10:05:33;101691.88;;;16.55;100.00
6028;BME280;3042;43.194;27.646;2023-03-22T10:08:31;101699.09;;;16.38;100.00
6028;BME280;3042;43.194;27.646;2023-03-22T10:11:16;101699.22;;;16.41;100.00
6028;BME280;3042;43.194;27.646;2023-03-22T10:14:01;101686.53;;;16.52;100.00
6028;BME280;3042;43.194;27.646;2023-03-22T10:16:42;101701.38;;;16.53;100.00
6028;BME280;3042;43.194;27.646;2023-03-22T10:19:23;101706.09;;;16.39;100.00
6028;BME280;3042;43.194;27.646;2023-03-22T10:21:58;101703.69;;;16.45;100.00
6028;BME280;3042;43.194;27.646;2023-03-22T10:24:37;101560.31;;;15.51;100.00
6028;BME280;3042;43.194;27.646;2023-03-22T10:27:21;101684.13;;;16.82;100.00
6028;BME280;3042;43.194;27.646;2023-03-22T10:29:55;101683.47;;;16.88;100.00
6028;BME280;3042;43.194;27.646;2023-03-22T10:32:29;101687.84;;;16.89;100.00
6028;BME280;3042;43.194;27.646;2023-03-22T10:34:57;101634.00;;;16.41;100.00
6028;BME280;3042;43.194;27.646;2023-03-22T10:37:29;101686.97;;;17.16;100.00
6028;BME280;3042;43.194;27.646;2023-03-22T10:39:59;101688.47;;;17.07;100.00
6028;BME280;3042;43.194;27.646;2023-03-22T10:42:35;101676.31;;;17.35;100.00
6028;BME280;3042;43.194;27.646;2023-03-22T10:45:06;101680.59;;;17.33;100.00
6028;BME280;3042;43.194;27.646;2023-03-22T10:47:37;101683.28;;;17.36;100.00
6028;BME280;3042;43.194;27.646;2023-03-22T10:50:10;101684.53;;;17.47;100.00
6028;BME280;3042;43.194;27.646;2023-03-22T10:52:42;101681.16;;;17.24;100.00
6028;BME280;3042;43.194;27.646;2023-03-22T10:55:13;101687.38;;;17.01;100.00
6028;BME280;3042;43.194;27.646;2023-03-22T10:57:56;101676.84;;;16.74;100.00
6028;BME280;3042;43.194;27.646;2023-03-22T11:00:24;101647.16;;;16.44;100.00
6028;BME280;3042;43.194;27.646;2023-03-22T11:02:57;101594.19;;;16.47;100.00
6028;BME280;3042;43.194;27.646;2023-03-22T11:05:26;101677.50;;;16.92;100.00
6028;BME280;3042;43.194;27.646;2023-03-22T11:07:55;101687.41;;;16.77;100.00
6028;BME280;3042;43.194;27.646;2023-03-22T11:10:25;101698.22;;;16.38;100.00
6028;BME280;3042;43.194;27.646;2023-03-22T11:13:09;101698.13;;;16.36;100.00
6028;BME280;3042;43.194;27.646;2023-03-22T11:15:39;101690.75;;;16.00;100.00
6028;BME280;3042;43.194;27.646;2023-03-22T11:18:09;101666.81;;;15.66;100.00
6028;BME280;3042;43.194;27.646;2023-03-22T11:20:38;101680.75;;;15.89;100.00
6028;BME280;3042;43.194;27.646;2023-03-22T11:23:10;101680.28;;;15.76;100.00
6028;BME280;3042;43.194;27.646;2023-03-22T11:25:44;101666.81;;;16.35;100.00
6028;BME280;3042;43.194;27.646;2023-03-22T11:28:17;101663.38;;;16.61;100.00
6028;BME280;3042;43.194;27.646;2023-03-22T11:31:00;101676.91;;;16.01;100.00
6028;BME280;3042;43.194;27.646;2023-03-22T11:33:28;101681.00;;;15.95;100.00
6028;BME280;3042;43.194;27.646;2023-03-22T11:35:56;101628.13;;;15.99;100.00
6028;BME280;3042;43.194;27.646;2023-03-22T11:38:26;101674.97;;;15.73;100.00
6028;BME280;3042;43.194;27.646;2023-03-22T11:40:58;101659.28;;;15.96;100.00
6028;BME280;3042;43.194;27.646;2023-03-22T11:43:32;101652.22;;;16.16;100.00
6028;BME280;3042;43.194;27.646;2023-03-22T11:46:00;101635.38;;;15.83;100.00
6028;BME280;3042;43.194;27.646;2023-03-22T11:48:30;101663.91;;;16.03;100.00
6028;BME280;3042;43.194;27.646;2023-03-22T11:51:04;101347.56;;;14.76;100.00
6028;BME280;3042;43.194;27.646;2023-03-22T11:53:35;100919.38;;;12.34;100.00
6028;BME280;3042;43.194;27.646;2023-03-22T11:56:04;101315.56;;;14.54;100.00
6028;BME280;3042;43.194;27.646;2023-03-22T11:58:54;101000.44;;;12.53;100.00
6028;BME280;3042;43.194;27.646;2023-03-22T12:01:32;100909.22;;;11.77;100.00
6028;BME280;3042;43.194;27.646;2023-03-22T12:04:04;101203.63;;;13.39;100.00
6028;BME280;3042;43.194;27.646;2023-03-22T12:06:36;101431.03;;;14.60;100.00
6028;BME280;3042;43.194;27.646;2023-03-22T12:09:09;101002.91;;;11.88;100.00
6028;BME280;3042;43.194;27.646;2023-03-22T12:11:40;100999.03;;;11.59;100.00
6028;BME280;3042;43.194;27.646;2023-03-22T12:14:18;100996.78;;;11.67;100.00
6028;BME280;3042;43.194;27.646;2023-03-22T12:16:53;100921.75;;;11.08;100.00
6028;BME280;3042;43.194;27.646;2023-03-22T12:19:36;101636.03;;;15.78;100.00
6028;BME280;3042;43.194;27.646;2023-03-22T12:22:28;101534.91;;;14.98;100.00
6028;BME280;3042;43.194;27.646;2023-03-22T12:24:57;101586.59;;;15.34;100.00
6028;BME280;3042;43.194;27.646;2023-03-22T12:27:27;101635.28;;;15.80;100.00
6028;BME280;3042;43.194;27.646;2023-03-22T12:30:00;101636.97;;;15.80;100.00
6028;BME280;3042;43.194;27.646;2023-03-22T12:32:32;101509.34;;;15.11;100.00
6028;BME280;3042;43.194;27.646;2023-03-22T12:35:03;101423.69;;;14.72;100.00
6028;BME280;3042;43.194;27.646;2023-03-22T12:37:33;101276.75;;;13.70;100.00
6028;BME280;3042;43.194;27.646;2023-03-22T12:40:05;101554.66;;;15.16;100.00
6028;BME280;3042;43.194;27.646;2023-03-22T12:42:41;101633.38;;;15.31;100.00
6028;BME280;3042;43.194;27.646;2023-03-22T12:45:21;101626.69;;;15.17;100.00
6028;BME280;3042;43.194;27.646;2023-03-22T12:48:04;101621.94;;;15.73;100.00
6028;BME280;3042;43.194;27.646;2023-03-22T12:50:46;101608.16;;;15.08;100.00
6028;BME280;3042;43.194;27.646;2023-03-22T12:53:29;101631.91;;;15.17;100.00
6028;BME280;3042;43.194;27.646;2023-03-22T12:56:14;101586.59;;;14.89;100.00
6028;BME280;3042;43.194;27.646;2023-03-22T12:59:00;101629.56;;;15.23;100.00
6028;BME280;3042;43.194;27.646;2023-03-22T13:01:47;101630.41;;;15.22;100.00
6028;BME280;3042;43.194;27.646;2023-03-22T13:04:51;101629.34;;;15.39;100.00
6028;BME280;3042;43.194;27.646;2023-03-22T13:07:48;101531.72;;;15.06;100.00
6028;BME280;3042;43.194;27.646;2023-03-22T13:13:47;101630.94;;;15.58;100.00
6028;BME280;3042;43.194;27.646;2023-03-22T13:19:37;101623.06;;;15.79;100.00
6028;BME280;3042;43.194;27.646;2023-03-22T13:25:59;101605.34;;;15.93;100.00
6028;BME280;3042;43.194;27.646;2023-03-22T13:28:35;101605.91;;;16.09;100.00
6028;BME280;3042;43.194;27.646;2023-03-22T13:31:28;101621.16;;;15.75;100.00
6028;BME280;3042;43.194;27.646;2023-03-22T13:34:10;101608.63;;;15.88;100.00
6028;BME280;3042;43.194;27.646;2023-03-22T13:37:08;101590.69;;;15.73;100.00